Terminal Aerodrome Forecast
Issued by NWS

Current Version | Previous Version | Graphics & Text | Print | Product List | Glossary On
Versions: 1 2 3 4 5 6 7 8 9 10 11 12 13 14 15 16 17 18 19 20
567
FTUS41 KILN 202346
TAFLUK
TAF
KLUK 202346Z 2100/2124 20007KT P6SM OVC019
     FM210600 20007KT P6SM VCSH OVC022
     FM211700 20010KT 5SM BR OVC012
     FM212300 17006KT 5SM BR OVC018=

USA.gov is the U.S. government's official web portal to all federal, state and local government web resources and services.